Time;durP1;ratioP1;P1;durP2;ratioP2;P2;SDS_P1;SDS_P2;PMS_P1;PMS_P2;Temp;Humidity;BMP_temperature;BMP_pressure;BME280_temperature;BME280_humidity;BME280_pressure;Samples;Min_cycle;Max_cycle;Signal;HPM_P1;HPM_P2
2022/04/08 00:04:18;;;;;;;4.40;1.60;;;22.70;54.00;;;;;;220886;1265;22609;-53
2022/04/08 00:09:24;;;;;;;5.00;1.40;;;22.60;53.80;;;;;;220919;1268;25416;-51
2022/04/08 00:14:27;;;;;;;3.40;1.40;;;22.60;54.60;;;;;;220568;1265;22529;-53
2022/04/08 00:19:32;;;;;;;3.70;1.60;;;22.60;54.00;;;;;;220536;1268;22709;-54
2022/04/08 00:24:35;;;;;;;4.40;1.40;;;22.50;54.00;;;;;;220849;1266;24418;-54
2022/04/08 00:29:39;;;;;;;5.20;1.70;;;22.50;54.00;;;;;;220945;1265;25245;-52
2022/04/08 00:34:43;;;;;;;3.40;1.30;;;22.50;54.20;;;;;;220930;1265;22603;-52
2022/04/08 00:39:47;;;;;;;3.40;1.40;;;22.40;54.40;;;;;;220649;1265;22579;-53
2022/04/08 00:44:50;;;;;;;3.70;1.40;;;22.50;54.30;;;;;;220471;1265;22618;-50
2022/04/08 00:49:54;;;;;;;3.90;1.50;;;22.90;53.70;;;;;;220776;1265;22664;-55
2022/04/08 00:55:00;;;;;;;3.70;1.60;;;23.10;53.10;;;;;;221067;1265;24281;-51
2022/04/08 01:00:09;;;;;;;4.30;1.50;;;23.30;52.80;;;;;;221076;1265;22735;-54
2022/04/08 01:05:13;;;;;;;3.60;1.50;;;23.50;52.00;;;;;;220922;1265;24188;-53
2022/04/08 01:10:17;;;;;;;4.00;1.50;;;23.60;51.90;;;;;;220745;1265;24040;-52
2022/04/08 01:15:25;;;;;;;3.40;1.30;;;23.60;51.70;;;;;;220550;1265;22541;-53
2022/04/08 01:20:33;;;;;;;4.80;1.30;;;23.70;51.20;;;;;;220522;1267;24931;-55
2022/04/08 01:25:37;;;;;;;3.70;1.50;;;23.80;50.80;;;;;;220574;1265;24338;-49
2022/04/08 01:30:40;;;;;;;3.30;1.20;;;23.80;50.80;;;;;;220549;1265;22769;-53
2022/04/08 01:35:44;;;;;;;5.90;1.60;;;23.90;50.50;;;;;;220647;1267;22647;-54
2022/04/08 01:40:48;;;;;;;3.60;1.40;;;23.90;50.30;;;;;;220515;1265;25376;-52
2022/04/08 01:45:51;;;;;;;2.20;1.00;;;23.90;50.80;;;;;;220750;1265;22782;-52
2022/04/08 01:50:55;;;;;;;3.60;1.10;;;23.80;50.30;;;;;;220528;1265;22560;-54
2022/04/08 01:56:00;;;;;;;2.60;1.20;;;23.60;50.70;;;;;;220699;1265;22731;-55
2022/04/08 02:01:03;;;;;;;3.70;1.60;;;23.60;51.40;;;;;;220445;1266;22537;-53
2022/04/08 02:06:08;;;;;;;3.40;1.20;;;23.50;51.10;;;;;;220599;1265;23929;-49
2022/04/08 02:11:11;;;;;;;2.00;1.00;;;23.50;51.40;;;;;;220990;1265;24215;-53
2022/04/08 02:16:16;;;;;;;2.70;1.20;;;23.40;51.00;;;;;;220929;1266;22544;-53
2022/04/08 02:21:21;;;;;;;3.30;1.20;;;23.30;51.20;;;;;;220762;1265;25207;-55
2022/04/08 02:26:25;;;;;;;3.30;1.50;;;23.30;51.20;;;;;;220613;1265;24409;-52
2022/04/08 02:31:29;;;;;;;4.50;1.40;;;23.40;51.10;;;;;;220909;1265;24425;-54
2022/04/08 02:36:33;;;;;;;2.20;1.10;;;23.50;50.90;;;;;;220605;1268;24308;-53
2022/04/08 02:41:36;;;;;;;3.20;1.00;;;23.60;50.50;;;;;;220637;1267;22538;-54
2022/04/08 02:46:40;;;;;;;4.80;1.30;;;23.70;50.40;;;;;;220895;1265;24207;-52
2022/04/08 02:51:44;;;;;;;2.80;1.10;;;23.80;50.60;;;;;;220752;1267;22567;-54
2022/04/08 02:56:48;;;;;;;3.90;1.10;;;23.80;50.40;;;;;;220960;1265;23983;-55
2022/04/08 03:01:52;;;;;;;2.80;1.20;;;23.60;50.90;;;;;;220657;1267;25288;-54
2022/04/08 03:06:58;;;;;;;2.70;1.30;;;23.60;51.00;;;;;;220508;1267;23437;-51
2022/04/08 03:12:03;;;;;;;3.00;1.00;;;23.50;51.10;;;;;;220783;1267;23287;-55
2022/04/08 03:17:07;;;;;;;3.00;1.10;;;23.40;51.20;;;;;;220732;1266;24049;-53
2022/04/08 03:22:11;;;;;;;1.80;1.00;;;23.20;51.50;;;;;;220494;1265;22585;-52
2022/04/08 03:27:15;;;;;;;2.30;1.20;;;23.20;51.80;;;;;;220443;1268;22616;-53
2022/04/08 03:32:19;;;;;;;2.20;0.90;;;23.10;52.00;;;;;;220947;1267;25621;-55
2022/04/08 03:37:25;;;;;;;3.80;1.20;;;23.10;52.00;;;;;;220817;1265;25306;-53
2022/04/08 03:42:28;;;;;;;4.70;1.20;;;23.00;51.50;;;;;;220832;1265;22837;-54
2022/04/08 03:47:36;;;;;;;2.20;0.90;;;23.00;51.90;;;;;;220844;1265;25474;-55
2022/04/08 03:52:42;;;;;;;2.80;0.80;;;23.00;52.00;;;;;;220678;1265;22532;-49
2022/04/08 03:57:47;;;;;;;3.80;1.10;;;22.90;52.10;;;;;;220766;1265;22515;-54
2022/04/08 04:02:51;;;;;;;2.20;1.00;;;22.90;52.00;;;;;;220766;1267;23184;-54
2022/04/08 04:07:56;;;;;;;2.40;1.10;;;22.90;52.00;;;;;;220668;1267;22780;-53
2022/04/08 04:13:00;;;;;;;2.00;0.80;;;22.80;52.00;;;;;;220994;1267;25573;-53
2022/04/08 04:18:04;;;;;;;3.20;0.90;;;22.80;52.30;;;;;;220817;1265;22577;-51
2022/04/08 04:23:08;;;;;;;1.30;0.80;;;22.70;52.20;;;;;;220919;1265;23944;-53
2022/04/08 04:28:13;;;;;;;3.30;1.00;;;22.70;52.60;;;;;;220714;1268;24225;-52
2022/04/08 04:33:16;;;;;;;2.70;1.20;;;22.60;52.20;;;;;;220488;1265;24177;-53
2022/04/08 04:38:21;;;;;;;4.20;1.10;;;22.60;52.60;;;;;;220880;1267;22612;-50
2022/04/08 04:43:24;;;;;;;2.70;1.30;;;22.60;52.50;;;;;;220575;1265;24432;-50
2022/04/08 04:48:28;;;;;;;4.70;1.20;;;22.50;52.30;;;;;;220604;1266;22576;-53
2022/04/08 04:53:35;;;;;;;1.10;0.70;;;22.50;52.30;;;;;;220796;1266;23304;-50
2022/04/08 04:58:42;;;;;;;2.70;0.70;;;22.50;52.80;;;;;;220745;1266;23255;-53
2022/04/08 05:03:46;;;;;;;1.70;0.90;;;22.40;52.50;;;;;;220630;1266;24151;-52
2022/04/08 05:08:50;;;;;;;2.70;1.20;;;22.40;52.60;;;;;;220408;1268;22564;-52
2022/04/08 05:13:54;;;;;;;2.90;0.90;;;22.40;52.50;;;;;;220558;1265;22699;-52
2022/04/08 05:18:58;;;;;;;2.60;1.10;;;22.40;52.60;;;;;;220457;1266;22555;-53
2022/04/08 05:24:01;;;;;;;2.40;1.10;;;22.50;53.10;;;;;;220362;1266;24515;-54
2022/04/08 05:29:05;;;;;;;3.30;1.00;;;22.80;51.50;;;;;;220748;1267;25037;-53
2022/04/08 05:34:09;;;;;;;3.00;1.00;;;23.10;51.10;;;;;;220627;1266;22529;-50
2022/04/08 05:39:12;;;;;;;7.90;1.00;;;23.20;51.80;;;;;;220309;1265;24293;-48
2022/04/08 05:44:16;;;;;;;5.40;1.10;;;23.30;51.20;;;;;;220460;1265;25632;-50
2022/04/08 05:49:20;;;;;;;6.60;1.10;;;23.20;51.50;;;;;;220308;1266;22696;-48
2022/04/08 05:54:23;;;;;;;2.70;0.80;;;23.20;51.90;;;;;;220619;1266;22748;-49
2022/04/08 05:59:30;;;;;;;4.60;1.20;;;23.10;52.00;;;;;;220556;1265;24357;-53
2022/04/08 06:04:34;;;;;;;7.30;1.20;;;23.10;52.60;;;;;;220801;1266;22613;-52
2022/04/08 06:09:37;;;;;;;5.60;1.60;;;23.20;52.30;;;;;;220324;1266;23284;-54
2022/04/08 06:14:41;;;;;;;7.30;1.80;;;23.20;52.60;;;;;;220473;1267;24422;-48
2022/04/08 06:19:46;;;;;;;5.60;1.60;;;23.20;52.50;;;;;;220589;1267;22812;-50
2022/04/08 06:24:50;;;;;;;10.20;1.30;;;23.20;53.10;;;;;;220948;1267;23942;-52
2022/04/08 06:29:54;;;;;;;10.00;1.40;;;23.20;53.20;;;;;;220886;1267;23836;-50
2022/04/08 06:34:59;;;;;;;4.10;1.50;;;23.20;52.80;;;;;;220634;1266;22952;-42
2022/04/08 06:40:08;;;;;;;7.90;1.50;;;23.10;52.60;;;;;;220696;1267;22540;-45
2022/04/08 06:45:11;;;;;;;17.50;1.80;;;23.00;52.30;;;;;;220697;1267;285455;-46
2022/04/08 06:50:16;;;;;;;8.70;1.40;;;23.00;52.20;;;;;;220348;1267;24492;-44
2022/04/08 06:55:20;;;;;;;3.90;1.20;;;23.00;52.40;;;;;;221089;1267;22600;-47
2022/04/08 07:00:30;;;;;;;6.70;1.00;;;22.90;52.20;;;;;;220856;1267;22527;-46
2022/04/08 07:05:33;;;;;;;9.00;1.60;;;22.90;51.90;;;;;;221009;1267;26712;-52
2022/04/08 07:10:40;;;;;;;5.80;1.30;;;22.90;53.20;;;;;;220603;1267;22525;-49
2022/04/08 07:15:44;;;;;;;5.90;1.20;;;22.80;55.60;;;;;;220020;1268;25192;-47
2022/04/08 07:20:48;;;;;;;4.80;1.10;;;22.80;56.30;;;;;;220680;1266;24341;-49
2022/04/08 07:25:52;;;;;;;3.80;1.10;;;22.80;55.80;;;;;;220410;1265;23189;-49
2022/04/08 07:30:55;;;;;;;5.30;1.30;;;22.70;55.80;;;;;;220353;1267;24214;-47
2022/04/08 07:35:59;;;;;;;3.10;1.00;;;22.60;55.60;;;;;;220409;1265;24300;-52
2022/04/08 07:41:03;;;;;;;4.70;1.30;;;22.60;55.40;;;;;;220703;1268;25227;-47
2022/04/08 07:46:07;;;;;;;5.10;1.70;;;22.50;55.60;;;;;;220353;1265;23904;-46
2022/04/08 07:51:11;;;;;;;3.80;1.60;;;22.50;55.10;;;;;;220168;1265;23922;-47
2022/04/08 07:56:14;;;;;;;5.10;0.80;;;22.40;54.90;;;;;;220582;1265;23170;-49
2022/04/08 08:01:18;;;;;;;4.90;1.20;;;22.40;54.60;;;;;;220860;1267;22759;-48
2022/04/08 08:06:22;;;;;;;4.90;0.90;;;22.40;54.50;;;;;;220538;1267;22852;-48
2022/04/08 08:11:26;;;;;;;3.70;1.20;;;22.40;53.80;;;;;;220266;1268;22965;-46
2022/04/08 08:16:31;;;;;;;2.30;0.80;;;22.30;53.50;;;;;;220560;1269;25310;-47
2022/04/08 08:21:35;;;;;;;2.20;0.90;;;22.30;53.00;;;;;;220745;1265;25501;-48
2022/04/08 08:26:39;;;;;;;3.50;1.20;;;22.30;53.00;;;;;;220720;1265;22687;-53
2022/04/08 08:31:43;;;;;;;3.00;0.90;;;22.30;52.90;;;;;;220682;1268;22540;-46
2022/04/08 08:36:51;;;;;;;2.40;1.00;;;22.40;52.90;;;;;;220678;1267;22525;-48
2022/04/08 08:41:56;;;;;;;3.10;0.90;;;22.40;52.60;;;;;;220641;1267;22549;-47
2022/04/08 08:47:01;;;;;;;5.70;0.90;;;22.30;52.40;;;;;;220551;1267;22538;-49
2022/04/08 08:52:09;;;;;;;2.80;1.20;;;22.30;52.60;;;;;;220590;1267;22617;-48
2022/04/08 08:57:20;;;;;;;4.00;1.50;;;22.30;52.60;;;;;;220563;1267;25654;-45
2022/04/08 09:02:24;;;;;;;4.80;1.40;;;22.30;52.70;;;;;;220490;1265;24271;-45
2022/04/08 09:07:31;;;;;;;6.40;1.50;;;22.30;52.70;;;;;;220621;1266;22725;-46
2022/04/08 09:12:35;;;;;;;4.90;1.30;;;22.30;53.10;;;;;;220386;1266;22545;-44
2022/04/08 09:17:40;;;;;;;4.60;1.30;;;22.30;52.80;;;;;;220498;1266;24217;-48
2022/04/08 09:22:54;;;;;;;5.00;1.40;;;22.30;53.00;;;;;;220344;1267;24423;-45
2022/04/08 09:28:15;;;;;;;7.10;2.20;;;22.30;53.00;;;;;;220402;1267;22879;-45
2022/04/08 09:33:21;;;;;;;6.60;2.00;;;22.30;54.80;;;;;;220513;1267;25482;-44
2022/04/08 09:38:26;;;;;;;7.20;2.10;;;22.40;55.50;;;;;;220417;1266;22563;-44
2022/04/08 09:43:35;;;;;;;4.70;1.60;;;22.40;55.10;;;;;;220811;1267;24213;-45
2022/04/08 09:48:41;;;;;;;6.70;1.60;;;22.40;54.60;;;;;;220673;1267;22823;-47
2022/04/08 09:53:50;;;;;;;6.00;1.90;;;22.40;53.90;;;;;;220576;1266;22566;-45
2022/04/08 09:59:13;;;;;;;4.80;1.90;;;22.50;53.40;;;;;;220748;1267;23213;-46
2022/04/08 10:04:37;;;;;;;5.30;2.10;;;22.50;53.20;;;;;;220541;1266;22551;-46
2022/04/08 10:10:04;;;;;;;5.90;1.70;;;22.50;53.00;;;;;;220486;1266;22842;-45
2022/04/08 10:15:19;;;;;;;5.10;1.60;;;22.50;53.00;;;;;;220510;1267;24479;-62
2022/04/08 10:20:24;;;;;;;6.50;2.00;;;22.50;52.80;;;;;;220561;1266;24497;-58
2022/04/08 10:25:35;;;;;;;4.30;1.30;;;22.50;52.80;;;;;;220338;1266;22564;-60
2022/04/08 10:30:51;;;;;;;2.80;1.40;;;22.60;52.80;;;;;;220925;1266;22531;-61
2022/04/08 10:36:01;;;;;;;3.90;1.70;;;22.60;52.30;;;;;;220425;1267;22538;-58
2022/04/08 10:41:11;;;;;;;4.90;1.60;;;22.60;52.20;;;;;;220341;1266;22547;-56
2022/04/08 10:46:29;;;;;;;4.90;1.50;;;22.60;52.20;;;;;;220323;1266;22829;-59
2022/04/08 10:51:43;;;;;;;5.30;1.60;;;22.70;52.30;;;;;;220320;1266;22554;-60
2022/04/08 10:56:57;;;;;;;6.90;1.90;;;22.70;52.30;;;;;;220254;1266;22696;-61
2022/04/08 11:02:05;;;;;;;6.30;1.70;;;22.70;52.30;;;;;;220554;1266;22707;-59
2022/04/08 11:07:11;;;;;;;4.50;1.30;;;22.70;52.30;;;;;;220431;1266;22548;-59
2022/04/08 11:12:14;;;;;;;3.60;1.30;;;22.60;52.10;;;;;;220397;1267;22539;-57
2022/04/08 11:17:20;;;;;;;4.50;1.20;;;22.70;52.10;;;;;;220226;1266;22561;-60
2022/04/08 11:22:24;;;;;;;4.80;1.70;;;22.70;51.10;;;;;;220593;1266;22563;-60
2022/04/08 11:27:31;;;;;;;4.60;1.30;;;22.80;50.70;;;;;;220687;1266;25514;-57
2022/04/08 11:32:39;;;;;;;5.30;1.40;;;22.80;51.20;;;;;;220408;1266;22560;-60
2022/04/08 11:37:43;;;;;;;3.70;1.50;;;22.90;50.70;;;;;;220325;1266;25422;-60
2022/04/08 11:42:48;;;;;;;3.90;1.30;;;22.90;50.90;;;;;;220980;1266;22620;-58
2022/04/08 11:47:51;;;;;;;6.20;1.50;;;22.80;50.60;;;;;;220646;1266;22529;-60
2022/04/08 11:52:58;;;;;;;7.40;1.50;;;22.80;50.50;;;;;;220521;1266;22573;-60
2022/04/08 11:58:19;;;;;;;4.80;1.50;;;22.90;50.40;;;;;;220458;1266;24037;-59
2022/04/08 12:03:29;;;;;;;6.70;1.90;;;22.90;50.20;;;;;;220589;1266;22664;-60
2022/04/08 12:08:37;;;;;;;7.10;2.00;;;22.90;50.20;;;;;;220579;1266;22584;-57
2022/04/08 12:13:51;;;;;;;7.80;2.00;;;22.90;50.00;;;;;;220539;1267;24263;-58
2022/04/08 12:19:03;;;;;;;9.40;1.70;;;22.90;50.60;;;;;;220682;1266;23928;-60
2022/04/08 12:24:33;;;;;;;4.30;1.50;;;22.90;50.20;;;;;;220645;1266;24341;-55
2022/04/08 12:29:45;;;;;;;10.80;2.10;;;22.90;49.70;;;;;;220688;1267;24277;-53
2022/04/08 12:34:58;;;;;;;6.80;1.50;;;22.90;49.70;;;;;;220231;1266;22544;-58
2022/04/08 12:40:10;;;;;;;;;;;22.90;49.70;;;;;;220994;1266;24251;-60
2022/04/08 12:45:18;;;;;;;6.30;1.80;;;22.90;50.20;;;;;;220123;1267;22618;-60
2022/04/08 12:50:28;;;;;;;5.20;1.60;;;22.90;49.90;;;;;;220340;1266;25236;-58
2022/04/08 12:55:42;;;;;;;6.50;1.60;;;22.90;49.50;;;;;;220295;1267;23863;-57
2022/04/08 13:00:50;;;;;;;3.40;1.50;;;22.90;49.50;;;;;;220500;1266;25300;-59
2022/04/08 13:05:57;;;;;;;7.30;1.80;;;22.90;49.50;;;;;;220307;1266;22715;-58
2022/04/08 13:11:22;;;;;;;6.90;1.60;;;22.90;49.50;;;;;;220067;1267;22933;-60
2022/04/08 13:16:28;;;;;;;7.30;1.40;;;22.90;49.70;;;;;;220068;1267;22538;-61
2022/04/08 13:21:36;;;;;;;7.80;1.70;;;22.90;49.60;;;;;;220072;1267;22739;-59
2022/04/08 13:26:40;;;;;;;7.80;2.20;;;22.80;49.80;;;;;;220581;1267;24422;-61
2022/04/08 13:31:46;;;;;;;3.90;1.30;;;22.90;50.00;;;;;;220447;1267;22525;-62
2022/04/08 13:36:51;;;;;;;4.70;1.80;;;22.90;50.10;;;;;;220776;1266;24413;-60
2022/04/08 13:41:55;;;;;;;4.40;1.60;;;22.90;50.10;;;;;;220421;1267;25396;-58
2022/04/08 13:46:59;;;;;;;4.90;1.70;;;22.90;50.40;;;;;;220235;1266;25421;-60
2022/04/08 13:52:04;;;;;;;3.70;1.40;;;22.90;50.30;;;;;;220575;1267;22567;-60
2022/04/08 13:57:08;;;;;;;6.20;1.40;;;22.90;50.00;;;;;;220478;1266;23192;-59
2022/04/08 14:02:14;;;;;;;5.00;1.60;;;22.90;50.00;;;;;;220346;1267;25354;-60
2022/04/08 14:07:25;;;;;;;8.20;1.60;;;22.80;49.90;;;;;;221320;1266;22547;-60
2022/04/08 14:12:37;;;;;;;3.30;1.30;;;22.80;49.90;;;;;;220322;1267;24417;-61
2022/04/08 14:17:49;;;;;;;5.60;1.60;;;22.80;49.60;;;;;;220455;1265;26607;-63
2022/04/08 14:22:55;;;;;;;5.20;1.90;;;22.80;50.20;;;;;;220394;1265;25393;-60
2022/04/08 14:28:03;;;;;;;7.60;2.00;;;22.70;50.20;;;;;;220567;1265;24394;-59
2022/04/08 14:33:20;;;;;;;4.40;1.60;;;22.70;49.80;;;;;;220197;1267;22752;-61
2022/04/08 14:38:39;;;;;;;4.50;1.70;;;22.80;49.70;;;;;;220554;1266;24302;-60
2022/04/08 14:43:55;;;;;;;6.50;2.10;;;22.70;49.50;;;;;;220093;1266;26523;-60
2022/04/08 14:49:15;;;;;;;8.10;4.30;;;22.70;50.40;;;;;;220242;1267;22861;-59
2022/04/08 14:54:30;;;;;;;14.70;4.90;;;22.70;51.10;;;;;;220350;1267;22477;-60
2022/04/08 14:59:56;;;;;;;16.50;4.10;;;22.70;52.60;;;;;;220312;1266;22692;-61
2022/04/08 15:05:11;;;;;;;13.60;3.60;;;22.80;51.30;;;;;;220461;1267;22527;-60
2022/04/08 15:10:51;;;;;;;23.30;4.30;;;22.80;50.70;;;;;;220079;1267;22550;-61
2022/04/08 15:16:24;;;;;;;11.80;3.10;;;22.70;49.90;;;;;;227962;1265;22508;-53
2022/04/08 15:21:45;;;;;;;12.90;3.70;;;22.70;50.60;;;;;;227965;1266;22407;-55
2022/04/08 15:27:16;;;;;;;8.40;3.00;;;22.60;50.50;;;;;;220585;1268;25339;-57
2022/04/08 15:32:27;;;;;;;13.70;3.10;;;22.70;51.20;;;;;;220013;1266;25183;-58
2022/04/08 15:37:44;;;;;;;12.90;3.10;;;22.70;51.00;;;;;;227961;1265;22431;-58
2022/04/08 15:42:54;;;;;;;16.40;2.70;;;22.70;50.80;;;;;;227867;1265;23727;-61
2022/04/08 15:48:06;;;;;;;10.40;2.50;;;22.70;50.90;;;;;;227956;1265;23043;-60
2022/04/08 15:53:10;;;;;;;12.60;2.80;;;22.70;50.70;;;;;;227828;1266;22494;-56
2022/04/08 15:58:13;;;;;;;10.70;2.60;;;22.80;50.80;;;;;;227914;1265;22626;-59
2022/04/08 16:03:19;;;;;;;9.50;3.30;;;22.70;50.60;;;;;;220690;1266;22821;-57
2022/04/08 16:08:24;;;;;;;8.20;2.60;;;22.70;50.20;;;;;;220122;1269;24218;-59
2022/04/08 16:13:31;;;;;;;10.80;2.40;;;22.60;50.80;;;;;;227928;1267;22185;-60
2022/04/08 16:18:46;;;;;;;10.70;2.20;;;22.60;50.30;;;;;;225911;1266;22593;-61
2022/04/08 16:23:53;;;;;;;11.50;2.50;;;22.60;50.60;;;;;;221111;1268;25311;-60
2022/04/08 16:29:00;;;;;;;9.80;2.90;;;22.90;50.00;;;;;;220539;1269;22711;-60
2022/04/08 16:34:04;;;;;;;13.30;3.50;;;23.30;49.20;;;;;;220139;1269;22824;-61
2022/04/08 16:39:15;;;;;;;11.30;2.50;;;23.40;49.60;;;;;;220536;1268;25356;-60
2022/04/08 16:44:28;;;;;;;11.50;2.80;;;23.60;50.30;;;;;;220387;1268;22594;-59
2022/04/08 16:49:32;;;;;;;18.00;2.60;;;23.70;51.30;;;;;;220458;1268;22560;-57
2022/04/08 16:55:18;;;;;;;11.00;2.20;;;23.80;51.10;;;;;;220515;1268;22603;-56
2022/04/08 17:00:48;;;;;;;12.80;2.80;;;23.90;51.20;;;;;;220336;1268;24522;-57
2022/04/08 17:06:03;;;;;;;13.70;2.50;;;24.00;51.10;;;;;;220341;1268;22751;-58
2022/04/08 17:11:24;;;;;;;10.20;2.30;;;23.90;50.90;;;;;;220398;1268;22591;-58
2022/04/08 17:16:38;;;;;;;6.90;2.30;;;23.70;50.60;;;;;;220189;1268;26557;-59
2022/04/08 17:21:52;;;;;;;9.70;2.40;;;23.70;51.30;;;;;;220524;1268;22604;-53
2022/04/08 17:27:09;;;;;;;13.00;2.40;;;23.60;50.80;;;;;;220453;1268;25427;-61
2022/04/08 17:32:16;;;;;;;11.20;2.60;;;23.60;50.30;;;;;;220263;1266;23947;-55
2022/04/08 17:37:30;;;;;;;9.70;2.20;;;23.50;50.10;;;;;;220355;1268;24905;-54
2022/04/08 17:42:42;;;;;;;14.60;2.30;;;23.40;50.10;;;;;;220585;1268;25425;-55
2022/04/08 17:47:51;;;;;;;18.40;2.70;;;23.30;49.90;;;;;;220423;1267;24394;-55
2022/04/08 17:52:57;;;;;;;9.50;1.80;;;23.30;49.70;;;;;;220463;1267;24285;-58
2022/04/08 17:58:01;;;;;;;12.20;2.60;;;23.20;49.70;;;;;;220365;1268;22620;-57
2022/04/08 18:03:20;;;;;;;12.60;2.30;;;23.10;49.70;;;;;;220768;1268;22583;-58
2022/04/08 18:08:46;;;;;;;12.40;2.60;;;23.00;49.70;;;;;;220425;1268;24211;-53
2022/04/08 18:14:02;;;;;;;9.60;2.10;;;23.10;49.80;;;;;;220430;1268;24245;-52
2022/04/08 18:19:19;;;;;;;11.90;2.40;;;23.00;50.00;;;;;;220576;1265;24383;-57
2022/04/08 18:24:33;;;;;;;9.00;2.30;;;22.90;50.20;;;;;;220931;1268;25235;-57
2022/04/08 18:29:48;;;;;;;11.10;2.60;;;22.90;50.30;;;;;;220256;1266;23967;-57
2022/04/08 18:35:25;;;;;;;15.10;2.80;;;22.90;50.10;;;;;;220646;1265;22616;-55
2022/04/08 18:40:49;;;;;;;12.80;2.80;;;22.90;50.30;;;;;;220716;1267;22889;-57
2022/04/08 18:46:11;;;;;;;24.80;3.20;;;22.90;50.00;;;;;;220457;1265;268951;-57
2022/04/08 18:51:35;;;;;;;12.10;2.60;;;22.80;50.00;;;;;;220310;1265;25363;-58
2022/04/08 18:56:40;;;;;;;10.80;2.90;;;22.70;50.20;;;;;;220593;1265;26205;-59
2022/04/08 19:02:14;;;;;;;11.00;2.90;;;22.70;50.20;;;;;;220485;1265;22546;-58
2022/04/08 19:07:32;;;;;;;10.80;2.40;;;22.70;49.90;;;;;;220779;1265;25383;-57
2022/04/08 19:12:40;;;;;;;10.90;2.70;;;22.70;50.00;;;;;;220618;1265;24198;-57
2022/04/08 19:17:54;;;;;;;19.10;3.00;;;22.70;50.20;;;;;;220700;1265;24277;-59
2022/04/08 19:23:21;;;;;;;20.40;2.40;;;22.60;50.50;;;;;;220868;1265;24293;-57
2022/04/08 19:28:37;;;;;;;23.50;2.80;;;22.60;50.90;;;;;;220814;1265;22534;-56
2022/04/08 19:33:49;;;;;;;16.10;3.90;;;22.60;50.70;;;;;;220685;1265;24225;-53
2022/04/08 19:39:05;;;;;;;23.90;2.90;;;22.60;50.50;;;;;;220732;1265;25907;-57
2022/04/08 19:44:43;;;;;;;11.70;2.70;;;22.50;50.40;;;;;;220922;1265;24425;-58
2022/04/08 19:50:15;;;;;;;11.90;2.90;;;22.50;50.50;;;;;;220783;1265;22527;-57
2022/04/08 19:55:23;;;;;;;11.40;2.50;;;22.40;50.40;;;;;;220797;1265;22567;-58
2022/04/08 20:00:28;;;;;;;12.20;2.40;;;22.40;50.40;;;;;;220894;1265;25652;-59
2022/04/08 20:05:41;;;;;;;14.40;2.50;;;22.40;50.20;;;;;;220839;1267;22614;-58
2022/04/08 20:10:46;;;;;;;14.80;2.30;;;22.40;50.30;;;;;;220660;1265;22709;-59
2022/04/08 20:15:52;;;;;;;15.20;2.60;;;22.60;49.70;;;;;;220870;1265;22698;-58
2022/04/08 20:21:07;;;;;;;11.70;2.80;;;23.00;49.00;;;;;;220975;1265;22683;-58
2022/04/08 20:26:26;;;;;;;14.30;2.30;;;23.20;48.50;;;;;;220528;1265;24213;-57
2022/04/08 20:31:48;;;;;;;11.10;3.30;;;23.50;48.00;;;;;;220626;1265;22557;-64
2022/04/08 20:37:06;;;;;;;11.50;3.00;;;23.60;47.80;;;;;;220568;1265;24179;-52
2022/04/08 20:42:14;;;;;;;8.60;3.00;;;23.70;47.70;;;;;;220451;1265;24269;-58
2022/04/08 20:47:21;;;;;;;10.20;3.00;;;23.90;47.60;;;;;;220551;1266;22572;-59
2022/04/08 20:52:25;;;;;;;9.50;2.40;;;23.80;47.50;;;;;;220812;1265;25596;-57
2022/04/08 20:57:29;;;;;;;6.70;2.30;;;23.90;47.50;;;;;;220571;1265;22526;-58
2022/04/08 21:02:44;;;;;;;9.20;2.90;;;24.00;47.40;;;;;;220194;1268;22988;-58
2022/04/08 21:07:54;;;;;;;7.50;2.30;;;24.00;47.40;;;;;;220624;1267;25298;-59
2022/04/08 21:12:59;;;;;;;6.90;2.10;;;24.10;47.30;;;;;;220353;1265;26689;-59
2022/04/08 21:18:10;;;;;;;11.30;2.60;;;24.10;47.20;;;;;;220361;1265;26476;-58
2022/04/08 21:23:14;;;;;;;13.10;4.20;;;24.10;47.60;;;;;;220343;1265;22701;-57
2022/04/08 21:28:18;;;;;;;6.70;1.90;;;24.00;47.40;;;;;;220520;1265;22629;-58
2022/04/08 21:33:21;;;;;;;7.60;2.00;;;24.00;47.40;;;;;;220528;1265;22811;-56
2022/04/08 21:38:27;;;;;;;10.60;2.50;;;23.90;47.70;;;;;;220672;1266;22591;-57
2022/04/08 21:43:30;;;;;;;10.20;2.70;;;23.70;47.90;;;;;;220692;1266;25491;-57
2022/04/08 21:48:36;;;;;;;10.00;2.60;;;23.70;48.50;;;;;;220701;1265;25512;-57
2022/04/08 21:53:43;;;;;;;9.40;2.30;;;23.60;48.60;;;;;;220781;1265;22701;-58
2022/04/08 21:58:47;;;;;;;5.30;1.90;;;23.50;49.20;;;;;;220596;1265;25527;-58
2022/04/08 22:03:55;;;;;;;8.30;1.70;;;23.40;48.70;;;;;;220466;1267;22553;-59
2022/04/08 22:09:04;;;;;;;8.50;1.80;;;23.30;49.00;;;;;;220541;1266;25236;-57
2022/04/08 22:14:21;;;;;;;10.30;2.40;;;23.30;49.10;;;;;;220883;1266;22584;-55
2022/04/08 22:19:25;;;;;;;9.10;2.10;;;23.30;49.10;;;;;;220580;1265;22786;-58
2022/04/08 22:24:33;;;;;;;4.10;2.00;;;23.20;49.40;;;;;;220777;1265;25445;-57
2022/04/08 22:29:38;;;;;;;8.50;1.80;;;23.20;49.20;;;;;;220552;1265;24429;-60
2022/04/08 22:34:42;;;;;;;6.20;2.20;;;23.10;49.20;;;;;;220572;1265;25499;-58
2022/04/08 22:39:46;;;;;;;11.10;1.70;;;23.10;49.70;;;;;;220915;1264;22532;-57
2022/04/08 22:44:53;;;;;;;8.70;1.90;;;23.00;49.30;;;;;;220699;1264;22609;-54
2022/04/08 22:50:09;;;;;;;6.30;2.00;;;22.90;49.30;;;;;;220707;1264;22554;-58
2022/04/08 22:55:21;;;;;;;9.80;2.60;;;22.90;49.30;;;;;;220942;1265;25294;-54
2022/04/08 23:00:29;;;;;;;4.60;1.90;;;22.90;49.70;;;;;;220941;1265;24363;-55
2022/04/08 23:05:33;;;;;;;6.80;1.70;;;22.90;49.40;;;;;;220938;1264;25046;-57
2022/04/08 23:10:39;;;;;;;6.70;2.20;;;22.90;49.50;;;;;;220832;1264;23200;-61
2022/04/08 23:15:43;;;;;;;4.20;1.70;;;22.80;49.40;;;;;;220768;1265;24375;-57
2022/04/08 23:20:46;;;;;;;5.60;1.90;;;22.80;49.50;;;;;;220540;1265;22717;-57
2022/04/08 23:25:50;;;;;;;5.50;2.00;;;22.70;49.50;;;;;;220741;1266;24427;-58
2022/04/08 23:30:54;;;;;;;2.90;1.50;;;22.70;49.60;;;;;;220798;1265;24215;-57
2022/04/08 23:35:58;;;;;;;6.90;2.00;;;22.60;49.50;;;;;;220588;1265;24280;-58
2022/04/08 23:41:03;;;;;;;6.10;2.30;;;22.60;49.60;;;;;;221000;1267;24378;-57
2022/04/08 23:46:10;;;;;;;6.20;2.40;;;22.60;49.70;;;;;;220765;1265;22560;-54
2022/04/08 23:51:14;;;;;;;6.60;2.20;;;22.50;49.60;;;;;;220525;1265;22591;-52
2022/04/08 23:56:17;;;;;;;4.80;1.60;;;22.50;49.70;;;;;;220646;1267;23829;-57
